sensor_id;sensor_type;location;lat;lon;timestamp;P1;durP1;ratioP1;P2;durP2;ratioP2
72235;SDS011;60146;52.498;13.462;2023-08-17T00:00:29;3.67;;;1.83;;
72235;SDS011;60146;52.498;13.462;2023-08-17T00:02:55;5.75;;;2.33;;
72235;SDS011;60146;52.498;13.462;2023-08-17T00:05:23;6.10;;;2.20;;
72235;SDS011;60146;52.498;13.462;2023-08-17T00:07:49;4.55;;;2.22;;
72235;SDS011;60146;52.498;13.462;2023-08-17T00:10:14;4.93;;;2.13;;
72235;SDS011;60146;52.498;13.462;2023-08-17T00:12:40;5.25;;;2.30;;
72235;SDS011;60146;52.498;13.462;2023-08-17T00:15:05;3.75;;;2.45;;
72235;SDS011;60146;52.498;13.462;2023-08-17T00:17:31;4.63;;;2.50;;
72235;SDS011;60146;52.498;13.462;2023-08-17T00:19:56;3.42;;;2.15;;
72235;SDS011;60146;52.498;13.462;2023-08-17T00:22:22;4.35;;;1.98;;
72235;SDS011;60146;52.498;13.462;2023-08-17T00:24:47;4.60;;;2.30;;
72235;SDS011;60146;52.498;13.462;2023-08-17T00:27:16;5.35;;;2.30;;
72235;SDS011;60146;52.498;13.462;2023-08-17T00:29:41;4.82;;;2.30;;
72235;SDS011;60146;52.498;13.462;2023-08-17T00:32:06;5.82;;;2.20;;
72235;SDS011;60146;52.498;13.462;2023-08-17T00:34:32;4.55;;;2.30;;
72235;SDS011;60146;52.498;13.462;2023-08-17T00:36:57;3.88;;;2.08;;
72235;SDS011;60146;52.498;13.462;2023-08-17T00:39:23;7.05;;;2.30;;
72235;SDS011;60146;52.498;13.462;2023-08-17T00:41:48;6.55;;;2.60;;
72235;SDS011;60146;52.498;13.462;2023-08-17T00:44:13;4.88;;;2.22;;
72235;SDS011;60146;52.498;13.462;2023-08-17T00:46:39;6.05;;;2.20;;
72235;SDS011;60146;52.498;13.462;2023-08-17T00:49:04;4.25;;;2.25;;
72235;SDS011;60146;52.498;13.462;2023-08-17T00:51:31;3.90;;;2.47;;
72235;SDS011;60146;52.498;13.462;2023-08-17T00:53:58;4.22;;;2.20;;
72235;SDS011;60146;52.498;13.462;2023-08-17T00:56:25;5.88;;;2.65;;
72235;SDS011;60146;52.498;13.462;2023-08-17T00:59:00;5.35;;;2.22;;
72235;SDS011;60146;52.498;13.462;2023-08-17T01:01:26;4.53;;;2.17;;
72235;SDS011;60146;52.498;13.462;2023-08-17T01:03:51;4.85;;;2.40;;
72235;SDS011;60146;52.498;13.462;2023-08-17T01:06:18;4.35;;;2.22;;
72235;SDS011;60146;52.498;13.462;2023-08-17T01:08:44;5.30;;;2.35;;
72235;SDS011;60146;52.498;13.462;2023-08-17T01:16:33;3.83;;;2.45;;
72235;SDS011;60146;52.498;13.462;2023-08-17T01:19:12;5.20;;;2.30;;
72235;SDS011;60146;52.498;13.462;2023-08-17T01:21:50;6.35;;;2.45;;
72235;SDS011;60146;52.498;13.462;2023-08-17T01:24:36;5.53;;;2.20;;
72235;SDS011;60146;52.498;13.462;2023-08-17T01:27:05;6.43;;;2.50;;
72235;SDS011;60146;52.498;13.462;2023-08-17T01:29:30;6.35;;;2.20;;
72235;SDS011;60146;52.498;13.462;2023-08-17T01:34:33;5.80;;;2.20;;
72235;SDS011;60146;52.498;13.462;2023-08-17T01:37:07;3.92;;;2.15;;
72235;SDS011;60146;52.498;13.462;2023-08-17T01:42:12;6.10;;;2.83;;
72235;SDS011;60146;52.498;13.462;2023-08-17T01:44:40;2.78;;;2.03;;
72235;SDS011;60146;52.498;13.462;2023-08-17T01:47:06;2.35;;;2.00;;
72235;SDS011;60146;52.498;13.462;2023-08-17T01:49:31;4.18;;;2.10;;
72235;SDS011;60146;52.498;13.462;2023-08-17T01:51:57;5.13;;;2.35;;
72235;SDS011;60146;52.498;13.462;2023-08-17T01:54:22;4.75;;;2.17;;
72235;SDS011;60146;52.498;13.462;2023-08-17T01:56:49;3.72;;;2.40;;
72235;SDS011;60146;52.498;13.462;2023-08-17T01:59:14;5.20;;;2.28;;
72235;SDS011;60146;52.498;13.462;2023-08-17T02:01:39;3.53;;;2.10;;
72235;SDS011;60146;52.498;13.462;2023-08-17T02:04:05;4.60;;;2.30;;
72235;SDS011;60146;52.498;13.462;2023-08-17T02:06:32;5.35;;;2.60;;
72235;SDS011;60146;52.498;13.462;2023-08-17T02:09:00;4.97;;;2.50;;
72235;SDS011;60146;52.498;13.462;2023-08-17T02:11:29;6.72;;;2.58;;
72235;SDS011;60146;52.498;13.462;2023-08-17T02:13:54;6.20;;;2.25;;
72235;SDS011;60146;52.498;13.462;2023-08-17T02:16:19;3.97;;;2.42;;
72235;SDS011;60146;52.498;13.462;2023-08-17T02:18:45;6.30;;;2.45;;
72235;SDS011;60146;52.498;13.462;2023-08-17T02:21:10;5.22;;;2.60;;
72235;SDS011;60146;52.498;13.462;2023-08-17T02:23:35;5.13;;;2.50;;
72235;SDS011;60146;52.498;13.462;2023-08-17T02:26:01;5.35;;;2.70;;
72235;SDS011;60146;52.498;13.462;2023-08-17T02:28:26;4.63;;;2.30;;
72235;SDS011;60146;52.498;13.462;2023-08-17T02:31:07;5.05;;;2.15;;
72235;SDS011;60146;52.498;13.462;2023-08-17T02:33:35;5.60;;;2.40;;
72235;SDS011;60146;52.498;13.462;2023-08-17T02:36:02;4.20;;;2.60;;
72235;SDS011;60146;52.498;13.462;2023-08-17T02:38:30;5.57;;;2.58;;
72235;SDS011;60146;52.498;13.462;2023-08-17T02:40:56;4.05;;;2.20;;
72235;SDS011;60146;52.498;13.462;2023-08-17T02:43:21;6.10;;;2.40;;
72235;SDS011;60146;52.498;13.462;2023-08-17T02:45:47;4.57;;;2.13;;
72235;SDS011;60146;52.498;13.462;2023-08-17T02:48:12;3.03;;;2.20;;
72235;SDS011;60146;52.498;13.462;2023-08-17T02:50:37;4.88;;;2.40;;
72235;SDS011;60146;52.498;13.462;2023-08-17T02:53:04;6.65;;;2.58;;
72235;SDS011;60146;52.498;13.462;2023-08-17T02:55:29;4.50;;;2.25;;
72235;SDS011;60146;52.498;13.462;2023-08-17T02:57:55;6.53;;;2.20;;
72235;SDS011;60146;52.498;13.462;2023-08-17T03:00:20;4.57;;;2.00;;
72235;SDS011;60146;52.498;13.462;2023-08-17T03:02:46;4.43;;;2.28;;
72235;SDS011;60146;52.498;13.462;2023-08-17T03:05:11;7.18;;;2.42;;
72235;SDS011;60146;52.498;13.462;2023-08-17T03:07:36;3.03;;;2.20;;
72235;SDS011;60146;52.498;13.462;2023-08-17T03:10:02;5.38;;;2.40;;
72235;SDS011;60146;52.498;13.462;2023-08-17T03:12:27;4.82;;;2.30;;
72235;SDS011;60146;52.498;13.462;2023-08-17T03:14:53;5.35;;;2.10;;
72235;SDS011;60146;52.498;13.462;2023-08-17T03:17:18;8.02;;;2.08;;
72235;SDS011;60146;52.498;13.462;2023-08-17T03:19:43;4.68;;;2.40;;
72235;SDS011;60146;52.498;13.462;2023-08-17T03:22:09;6.57;;;2.45;;
72235;SDS011;60146;52.498;13.462;2023-08-17T03:24:34;3.78;;;2.20;;
72235;SDS011;60146;52.498;13.462;2023-08-17T03:27:00;4.75;;;2.08;;
72235;SDS011;60146;52.498;13.462;2023-08-17T03:29:25;4.22;;;1.90;;
72235;SDS011;60146;52.498;13.462;2023-08-17T03:31:52;4.82;;;2.28;;
72235;SDS011;60146;52.498;13.462;2023-08-17T03:34:17;3.63;;;1.80;;
72235;SDS011;60146;52.498;13.462;2023-08-17T03:36:42;6.40;;;2.25;;
72235;SDS011;60146;52.498;13.462;2023-08-17T03:39:08;4.13;;;2.03;;
72235;SDS011;60146;52.498;13.462;2023-08-17T03:41:33;7.75;;;2.40;;
72235;SDS011;60146;52.498;13.462;2023-08-17T03:44:01;5.50;;;2.10;;
72235;SDS011;60146;52.498;13.462;2023-08-17T03:46:27;8.43;;;2.03;;
72235;SDS011;60146;52.498;13.462;2023-08-17T03:48:53;6.82;;;2.15;;
72235;SDS011;60146;52.498;13.462;2023-08-17T03:51:18;7.05;;;2.22;;
72235;SDS011;60146;52.498;13.462;2023-08-17T03:53:44;3.25;;;1.88;;
72235;SDS011;60146;52.498;13.462;2023-08-17T03:56:09;6.97;;;1.98;;
72235;SDS011;60146;52.498;13.462;2023-08-17T03:58:34;4.80;;;1.90;;
72235;SDS011;60146;52.498;13.462;2023-08-17T04:01:00;4.20;;;1.55;;
72235;SDS011;60146;52.498;13.462;2023-08-17T04:03:27;4.20;;;2.05;;
72235;SDS011;60146;52.498;13.462;2023-08-17T04:05:52;4.25;;;1.88;;
72235;SDS011;60146;52.498;13.462;2023-08-17T04:08:17;8.55;;;2.13;;
72235;SDS011;60146;52.498;13.462;2023-08-17T04:10:43;3.83;;;1.95;;
72235;SDS011;60146;52.498;13.462;2023-08-17T04:13:08;4.53;;;2.08;;
72235;SDS011;60146;52.498;13.462;2023-08-17T04:15:34;4.35;;;2.10;;
72235;SDS011;60146;52.498;13.462;2023-08-17T04:17:59;5.93;;;2.22;;
72235;SDS011;60146;52.498;13.462;2023-08-17T04:20:24;5.03;;;2.05;;
72235;SDS011;60146;52.498;13.462;2023-08-17T04:22:50;6.75;;;2.20;;
72235;SDS011;60146;52.498;13.462;2023-08-17T04:25:16;3.10;;;1.90;;
72235;SDS011;60146;52.498;13.462;2023-08-17T04:27:41;3.10;;;1.75;;
72235;SDS011;60146;52.498;13.462;2023-08-17T04:30:08;4.43;;;2.00;;
72235;SDS011;60146;52.498;13.462;2023-08-17T04:32:34;5.32;;;2.10;;
72235;SDS011;60146;52.498;13.462;2023-08-17T04:34:59;3.90;;;1.90;;
72235;SDS011;60146;52.498;13.462;2023-08-17T04:37:25;4.60;;;1.83;;
72235;SDS011;60146;52.498;13.462;2023-08-17T04:39:50;3.25;;;1.55;;
72235;SDS011;60146;52.498;13.462;2023-08-17T04:42:16;4.38;;;1.63;;
72235;SDS011;60146;52.498;13.462;2023-08-17T04:44:41;4.75;;;2.00;;
72235;SDS011;60146;52.498;13.462;2023-08-17T04:47:07;3.78;;;1.88;;
72235;SDS011;60146;52.498;13.462;2023-08-17T04:49:33;5.13;;;1.90;;
72235;SDS011;60146;52.498;13.462;2023-08-17T04:51:58;4.47;;;1.90;;
72235;SDS011;60146;52.498;13.462;2023-08-17T04:54:23;4.78;;;1.80;;
72235;SDS011;60146;52.498;13.462;2023-08-17T04:56:49;8.48;;;2.00;;
72235;SDS011;60146;52.498;13.462;2023-08-17T04:59:14;4.22;;;1.77;;
72235;SDS011;60146;52.498;13.462;2023-08-17T05:01:40;5.97;;;1.83;;
72235;SDS011;60146;52.498;13.462;2023-08-17T05:04:05;3.40;;;1.75;;
72235;SDS011;60146;52.498;13.462;2023-08-17T05:06:31;3.83;;;1.70;;
72235;SDS011;60146;52.498;13.462;2023-08-17T05:08:56;2.05;;;1.50;;
72235;SDS011;60146;52.498;13.462;2023-08-17T05:11:22;2.40;;;1.70;;
72235;SDS011;60146;52.498;13.462;2023-08-17T05:13:48;5.65;;;1.90;;
72235;SDS011;60146;52.498;13.462;2023-08-17T05:16:17;3.60;;;1.80;;
72235;SDS011;60146;52.498;13.462;2023-08-17T05:18:42;3.08;;;1.60;;
72235;SDS011;60146;52.498;13.462;2023-08-17T05:21:07;6.85;;;1.73;;
72235;SDS011;60146;52.498;13.462;2023-08-17T05:23:33;4.07;;;1.52;;
72235;SDS011;60146;52.498;13.462;2023-08-17T05:25:58;4.63;;;1.88;;
72235;SDS011;60146;52.498;13.462;2023-08-17T05:28:24;6.03;;;1.50;;
72235;SDS011;60146;52.498;13.462;2023-08-17T05:30:49;3.95;;;1.70;;
72235;SDS011;60146;52.498;13.462;2023-08-17T05:33:15;2.20;;;1.63;;
72235;SDS011;60146;52.498;13.462;2023-08-17T05:35:40;5.00;;;1.70;;
72235;SDS011;60146;52.498;13.462;2023-08-17T05:38:07;3.03;;;1.88;;
72235;SDS011;60146;52.498;13.462;2023-08-17T05:40:34;6.95;;;2.40;;
72235;SDS011;60146;52.498;13.462;2023-08-17T05:43:00;4.68;;;1.90;;
72235;SDS011;60146;52.498;13.462;2023-08-17T05:45:25;3.88;;;2.05;;
72235;SDS011;60146;52.498;13.462;2023-08-17T05:47:51;5.15;;;1.90;;
72235;SDS011;60146;52.498;13.462;2023-08-17T05:50:17;4.40;;;1.80;;
72235;SDS011;60146;52.498;13.462;2023-08-17T05:52:42;4.68;;;1.70;;
72235;SDS011;60146;52.498;13.462;2023-08-17T05:55:07;5.70;;;1.92;;
72235;SDS011;60146;52.498;13.462;2023-08-17T05:57:33;2.90;;;1.50;;
72235;SDS011;60146;52.498;13.462;2023-08-17T05:59:59;3.20;;;1.45;;
72235;SDS011;60146;52.498;13.462;2023-08-17T06:02:24;4.30;;;1.65;;
72235;SDS011;60146;52.498;13.462;2023-08-17T06:04:50;5.70;;;2.00;;
72235;SDS011;60146;52.498;13.462;2023-08-17T06:07:15;2.67;;;1.55;;
72235;SDS011;60146;52.498;13.462;2023-08-17T06:09:41;4.30;;;1.50;;
72235;SDS011;60146;52.498;13.462;2023-08-17T06:12:06;5.75;;;1.92;;
72235;SDS011;60146;52.498;13.462;2023-08-17T06:14:32;4.57;;;1.80;;
72235;SDS011;60146;52.498;13.462;2023-08-17T06:16:58;3.22;;;1.60;;
72235;SDS011;60146;52.498;13.462;2023-08-17T06:19:23;6.25;;;2.10;;
72235;SDS011;60146;52.498;13.462;2023-08-17T06:21:49;7.30;;;1.92;;
72235;SDS011;60146;52.498;13.462;2023-08-17T06:24:14;3.50;;;1.65;;
72235;SDS011;60146;52.498;13.462;2023-08-17T06:26:40;6.00;;;1.90;;
72235;SDS011;60146;52.498;13.462;2023-08-17T06:29:05;3.45;;;1.58;;
72235;SDS011;60146;52.498;13.462;2023-08-17T06:31:31;5.50;;;1.70;;
72235;SDS011;60146;52.498;13.462;2023-08-17T06:33:56;4.43;;;2.00;;
72235;SDS011;60146;52.498;13.462;2023-08-17T06:36:22;4.07;;;1.70;;
72235;SDS011;60146;52.498;13.462;2023-08-17T06:38:47;3.75;;;1.60;;
72235;SDS011;60146;52.498;13.462;2023-08-17T06:41:13;4.40;;;1.85;;
72235;SDS011;60146;52.498;13.462;2023-08-17T06:43:38;4.10;;;1.80;;
72235;SDS011;60146;52.498;13.462;2023-08-17T06:46:04;2.72;;;1.73;;
72235;SDS011;60146;52.498;13.462;2023-08-17T06:48:29;4.75;;;2.00;;
72235;SDS011;60146;52.498;13.462;2023-08-17T06:50:56;6.22;;;1.70;;
72235;SDS011;60146;52.498;13.462;2023-08-17T06:53:21;4.43;;;2.10;;
72235;SDS011;60146;52.498;13.462;2023-08-17T06:55:47;3.38;;;1.80;;
72235;SDS011;60146;52.498;13.462;2023-08-17T06:58:12;10.52;;;1.92;;
72235;SDS011;60146;52.498;13.462;2023-08-17T07:00:38;4.82;;;1.92;;
72235;SDS011;60146;52.498;13.462;2023-08-17T07:03:08;4.55;;;1.95;;
72235;SDS011;60146;52.498;13.462;2023-08-17T07:05:34;8.55;;;2.00;;
72235;SDS011;60146;52.498;13.462;2023-08-17T07:07:59;3.92;;;1.90;;
72235;SDS011;60146;52.498;13.462;2023-08-17T07:10:25;7.05;;;2.30;;
72235;SDS011;60146;52.498;13.462;2023-08-17T07:12:51;4.90;;;1.70;;
72235;SDS011;60146;52.498;13.462;2023-08-17T07:15:18;4.57;;;1.85;;
72235;SDS011;60146;52.498;13.462;2023-08-17T07:17:46;3.72;;;1.80;;
72235;SDS011;60146;52.498;13.462;2023-08-17T07:20:12;3.95;;;1.90;;
72235;SDS011;60146;52.498;13.462;2023-08-17T07:22:37;6.70;;;2.20;;
72235;SDS011;60146;52.498;13.462;2023-08-17T07:25:03;4.15;;;1.85;;
72235;SDS011;60146;52.498;13.462;2023-08-17T07:27:46;3.80;;;1.83;;
72235;SDS011;60146;52.498;13.462;2023-08-17T07:30:15;7.00;;;2.20;;
72235;SDS011;60146;52.498;13.462;2023-08-17T07:32:40;7.22;;;2.10;;
72235;SDS011;60146;52.498;13.462;2023-08-17T07:35:15;9.02;;;2.20;;
72235;SDS011;60146;52.498;13.462;2023-08-17T07:37:40;6.72;;;2.03;;
72235;SDS011;60146;52.498;13.462;2023-08-17T07:40:06;4.15;;;2.20;;
72235;SDS011;60146;52.498;13.462;2023-08-17T07:42:36;3.03;;;1.80;;
72235;SDS011;60146;52.498;13.462;2023-08-17T07:45:04;4.90;;;2.10;;
72235;SDS011;60146;52.498;13.462;2023-08-17T07:47:34;4.15;;;2.05;;
72235;SDS011;60146;52.498;13.462;2023-08-17T07:50:01;5.40;;;2.22;;
72235;SDS011;60146;52.498;13.462;2023-08-17T07:52:28;6.10;;;1.88;;
72235;SDS011;60146;52.498;13.462;2023-08-17T07:54:53;5.03;;;1.85;;
72235;SDS011;60146;52.498;13.462;2023-08-17T07:57:18;4.25;;;1.75;;
72235;SDS011;60146;52.498;13.462;2023-08-17T07:59:44;4.28;;;2.22;;
72235;SDS011;60146;52.498;13.462;2023-08-17T08:02:09;7.50;;;2.40;;
72235;SDS011;60146;52.498;13.462;2023-08-17T08:04:35;3.95;;;1.88;;
72235;SDS011;60146;52.498;13.462;2023-08-17T08:07:00;5.10;;;1.90;;
72235;SDS011;60146;52.498;13.462;2023-08-17T08:09:25;4.53;;;1.90;;
72235;SDS011;60146;52.498;13.462;2023-08-17T08:11:51;3.33;;;2.05;;
72235;SDS011;60146;52.498;13.462;2023-08-17T08:14:16;5.78;;;2.20;;
72235;SDS011;60146;52.498;13.462;2023-08-17T08:16:42;5.45;;;1.88;;
72235;SDS011;60146;52.498;13.462;2023-08-17T08:19:07;5.05;;;1.80;;
72235;SDS011;60146;52.498;13.462;2023-08-17T08:21:33;5.85;;;2.50;;
72235;SDS011;60146;52.498;13.462;2023-08-17T08:23:58;4.82;;;2.15;;
72235;SDS011;60146;52.498;13.462;2023-08-17T08:26:23;4.43;;;1.95;;
72235;SDS011;60146;52.498;13.462;2023-08-17T08:28:49;3.58;;;1.92;;
72235;SDS011;60146;52.498;13.462;2023-08-17T08:31:14;7.90;;;2.55;;
72235;SDS011;60146;52.498;13.462;2023-08-17T08:33:39;6.57;;;2.20;;
72235;SDS011;60146;52.498;13.462;2023-08-17T08:36:05;6.93;;;2.17;;
72235;SDS011;60146;52.498;13.462;2023-08-17T08:38:33;8.70;;;2.63;;
72235;SDS011;60146;52.498;13.462;2023-08-17T08:40:58;4.90;;;2.17;;
72235;SDS011;60146;52.498;13.462;2023-08-17T08:43:24;3.88;;;1.98;;
72235;SDS011;60146;52.498;13.462;2023-08-17T08:45:49;2.90;;;1.92;;
72235;SDS011;60146;52.498;13.462;2023-08-17T08:48:17;4.75;;;2.00;;
72235;SDS011;60146;52.498;13.462;2023-08-17T08:50:44;6.68;;;2.22;;
72235;SDS011;60146;52.498;13.462;2023-08-17T08:53:14;7.22;;;2.10;;
72235;SDS011;60146;52.498;13.462;2023-08-17T08:55:49;4.50;;;2.60;;
72235;SDS011;60146;52.498;13.462;2023-08-17T08:58:20;5.00;;;2.42;;
72235;SDS011;60146;52.498;13.462;2023-08-17T09:00:46;4.50;;;2.30;;
72235;SDS011;60146;52.498;13.462;2023-08-17T09:03:13;7.30;;;2.40;;
72235;SDS011;60146;52.498;13.462;2023-08-17T09:05:42;3.90;;;2.35;;
72235;SDS011;60146;52.498;13.462;2023-08-17T09:08:12;3.67;;;2.30;;
72235;SDS011;60146;52.498;13.462;2023-08-17T09:10:39;8.02;;;2.60;;
72235;SDS011;60146;52.498;13.462;2023-08-17T09:13:06;4.22;;;2.28;;
72235;SDS011;60146;52.498;13.462;2023-08-17T09:15:31;4.35;;;2.45;;
72235;SDS011;60146;52.498;13.462;2023-08-17T09:17:57;3.42;;;2.50;;
72235;SDS011;60146;52.498;13.462;2023-08-17T09:20:35;5.25;;;2.30;;
72235;SDS011;60146;52.498;13.462;2023-08-17T09:23:03;7.07;;;2.63;;
72235;SDS011;60146;52.498;13.462;2023-08-17T09:28:23;6.82;;;2.42;;
72235;SDS011;60146;52.498;13.462;2023-08-17T09:33:25;7.15;;;2.80;;
72235;SDS011;60146;52.498;13.462;2023-08-17T09:35:52;6.38;;;2.30;;
72235;SDS011;60146;52.498;13.462;2023-08-17T09:38:19;9.43;;;2.70;;
72235;SDS011;60146;52.498;13.462;2023-08-17T09:40:45;2.90;;;2.20;;
72235;SDS011;60146;52.498;13.462;2023-08-17T09:43:11;8.48;;;2.70;;
72235;SDS011;60146;52.498;13.462;2023-08-17T09:45:37;6.05;;;2.45;;
72235;SDS011;60146;52.498;13.462;2023-08-17T09:48:04;4.60;;;2.38;;
72235;SDS011;60146;52.498;13.462;2023-08-17T09:50:29;5.65;;;2.50;;
72235;SDS011;60146;52.498;13.462;2023-08-17T09:52:55;6.03;;;2.38;;
72235;SDS011;60146;52.498;13.462;2023-08-17T09:55:24;6.20;;;2.53;;
72235;SDS011;60146;52.498;13.462;2023-08-17T09:57:50;4.45;;;2.38;;
72235;SDS011;60146;52.498;13.462;2023-08-17T10:00:17;10.30;;;2.80;;
72235;SDS011;60146;52.498;13.462;2023-08-17T10:02:49;7.35;;;2.40;;
72235;SDS011;60146;52.498;13.462;2023-08-17T10:05:18;8.38;;;4.65;;
72235;SDS011;60146;52.498;13.462;2023-08-17T10:07:51;4.90;;;3.25;;
72235;SDS011;60146;52.498;13.462;2023-08-17T10:10:23;7.40;;;2.80;;
72235;SDS011;60146;52.498;13.462;2023-08-17T10:15:44;2.75;;;2.30;;
72235;SDS011;60146;52.498;13.462;2023-08-17T10:21:20;5.13;;;2.67;;
72235;SDS011;60146;52.498;13.462;2023-08-17T10:23:51;5.53;;;3.35;;
72235;SDS011;60146;52.498;13.462;2023-08-17T10:26:18;6.13;;;2.92;;
72235;SDS011;60146;52.498;13.462;2023-08-17T10:28:44;5.70;;;2.88;;
72235;SDS011;60146;52.498;13.462;2023-08-17T10:31:11;5.57;;;2.70;;
72235;SDS011;60146;52.498;13.462;2023-08-17T10:33:39;7.00;;;2.53;;
72235;SDS011;60146;52.498;13.462;2023-08-17T10:36:08;7.47;;;3.00;;
72235;SDS011;60146;52.498;13.462;2023-08-17T10:38:34;7.00;;;3.10;;
72235;SDS011;60146;52.498;13.462;2023-08-17T10:43:52;4.95;;;2.60;;
72235;SDS011;60146;52.498;13.462;2023-08-17T10:46:18;4.28;;;2.50;;
72235;SDS011;60146;52.498;13.462;2023-08-17T10:48:44;4.93;;;2.88;;
72235;SDS011;60146;52.498;13.462;2023-08-17T10:51:09;5.72;;;2.38;;
72235;SDS011;60146;52.498;13.462;2023-08-17T10:53:38;5.43;;;2.72;;
72235;SDS011;60146;52.498;13.462;2023-08-17T10:56:10;5.75;;;2.42;;
72235;SDS011;60146;52.498;13.462;2023-08-17T10:58:37;3.05;;;2.30;;
72235;SDS011;60146;52.498;13.462;2023-08-17T11:01:03;5.20;;;2.55;;
72235;SDS011;60146;52.498;13.462;2023-08-17T11:03:28;5.43;;;2.40;;
72235;SDS011;60146;52.498;13.462;2023-08-17T11:05:54;3.65;;;2.33;;
72235;SDS011;60146;52.498;13.462;2023-08-17T11:13:36;4.30;;;2.40;;
72235;SDS011;60146;52.498;13.462;2023-08-17T11:16:04;4.32;;;2.22;;
72235;SDS011;60146;52.498;13.462;2023-08-17T11:18:30;3.83;;;2.50;;
72235;SDS011;60146;52.498;13.462;2023-08-17T11:20:56;2.90;;;2.00;;
72235;SDS011;60146;52.498;13.462;2023-08-17T11:23:22;2.63;;;2.17;;
72235;SDS011;60146;52.498;13.462;2023-08-17T11:25:55;3.33;;;2.47;;
72235;SDS011;60146;52.498;13.462;2023-08-17T11:28:21;4.25;;;2.67;;
72235;SDS011;60146;52.498;13.462;2023-08-17T11:30:56;6.00;;;3.05;;
72235;SDS011;60146;52.498;13.462;2023-08-17T11:33:23;3.28;;;2.60;;
72235;SDS011;60146;52.498;13.462;2023-08-17T11:35:50;4.78;;;2.40;;
72235;SDS011;60146;52.498;13.462;2023-08-17T11:38:16;6.88;;;2.75;;
72235;SDS011;60146;52.498;13.462;2023-08-17T11:40:41;6.35;;;2.33;;
72235;SDS011;60146;52.498;13.462;2023-08-17T11:43:06;5.65;;;3.22;;
72235;SDS011;60146;52.498;13.462;2023-08-17T11:45:32;4.68;;;2.90;;
72235;SDS011;60146;52.498;13.462;2023-08-17T11:47:59;5.63;;;3.15;;
72235;SDS011;60146;52.498;13.462;2023-08-17T11:50:25;7.07;;;3.75;;
72235;SDS011;60146;52.498;13.462;2023-08-17T11:52:51;6.10;;;3.17;;
72235;SDS011;60146;52.498;13.462;2023-08-17T11:55:17;8.55;;;5.15;;
72235;SDS011;60146;52.498;13.462;2023-08-17T11:57:43;6.15;;;3.20;;
72235;SDS011;60146;52.498;13.462;2023-08-17T12:00:08;5.35;;;3.03;;
72235;SDS011;60146;52.498;13.462;2023-08-17T12:02:35;4.68;;;3.08;;
72235;SDS011;60146;52.498;13.462;2023-08-17T12:05:03;4.45;;;3.10;;
72235;SDS011;60146;52.498;13.462;2023-08-17T12:07:31;5.72;;;2.92;;
72235;SDS011;60146;52.498;13.462;2023-08-17T12:09:57;5.68;;;2.80;;
72235;SDS011;60146;52.498;13.462;2023-08-17T12:12:22;5.57;;;3.00;;
72235;SDS011;60146;52.498;13.462;2023-08-17T12:14:48;8.10;;;3.30;;
72235;SDS011;60146;52.498;13.462;2023-08-17T12:17:14;8.10;;;3.20;;
72235;SDS011;60146;52.498;13.462;2023-08-17T12:19:41;5.65;;;2.85;;
72235;SDS011;60146;52.498;13.462;2023-08-17T12:22:07;7.75;;;3.60;;
72235;SDS011;60146;52.498;13.462;2023-08-17T12:24:32;7.03;;;3.40;;
72235;SDS011;60146;52.498;13.462;2023-08-17T12:26:59;5.65;;;3.20;;
72235;SDS011;60146;52.498;13.462;2023-08-17T12:29:24;6.25;;;2.95;;
72235;SDS011;60146;52.498;13.462;2023-08-17T12:31:51;7.00;;;3.47;;
72235;SDS011;60146;52.498;13.462;2023-08-17T12:34:17;5.85;;;2.97;;
72235;SDS011;60146;52.498;13.462;2023-08-17T12:36:43;9.23;;;3.70;;
72235;SDS011;60146;52.498;13.462;2023-08-17T12:39:09;5.47;;;2.80;;
72235;SDS011;60146;52.498;13.462;2023-08-17T12:41:34;5.80;;;3.00;;
72235;SDS011;60146;52.498;13.462;2023-08-17T12:43:59;7.70;;;3.63;;
72235;SDS011;60146;52.498;13.462;2023-08-17T12:46:26;4.13;;;3.13;;
72235;SDS011;60146;52.498;13.462;2023-08-17T12:48:51;5.13;;;3.05;;
72235;SDS011;60146;52.498;13.462;2023-08-17T12:51:17;4.60;;;3.05;;
72235;SDS011;60146;52.498;13.462;2023-08-17T12:53:42;11.07;;;7.18;;
72235;SDS011;60146;52.498;13.462;2023-08-17T12:56:07;12.57;;;8.18;;
72235;SDS011;60146;52.498;13.462;2023-08-17T12:58:33;7.95;;;5.35;;
72235;SDS011;60146;52.498;13.462;2023-08-17T13:00:59;4.75;;;3.20;;
72235;SDS011;60146;52.498;13.462;2023-08-17T13:03:24;6.45;;;3.10;;
72235;SDS011;60146;52.498;13.462;2023-08-17T13:05:49;4.53;;;3.40;;
72235;SDS011;60146;52.498;13.462;2023-08-17T13:08:15;3.45;;;2.80;;
72235;SDS011;60146;52.498;13.462;2023-08-17T13:10:40;4.00;;;3.60;;
72235;SDS011;60146;52.498;13.462;2023-08-17T13:13:06;7.32;;;3.50;;
72235;SDS011;60146;52.498;13.462;2023-08-17T13:15:32;3.78;;;3.20;;
72235;SDS011;60146;52.498;13.462;2023-08-17T13:17:58;5.38;;;2.95;;
72235;SDS011;60146;52.498;13.462;2023-08-17T13:20:24;5.05;;;2.92;;
72235;SDS011;60146;52.498;13.462;2023-08-17T13:22:49;9.02;;;3.50;;
72235;SDS011;60146;52.498;13.462;2023-08-17T13:25:15;3.35;;;2.85;;
72235;SDS011;60146;52.498;13.462;2023-08-17T13:27:40;3.50;;;2.70;;
72235;SDS011;60146;52.498;13.462;2023-08-17T13:30:06;6.47;;;3.25;;
72235;SDS011;60146;52.498;13.462;2023-08-17T13:32:32;6.43;;;3.13;;
72235;SDS011;60146;52.498;13.462;2023-08-17T13:34:57;5.22;;;3.20;;
72235;SDS011;60146;52.498;13.462;2023-08-17T13:37:32;4.65;;;3.03;;
72235;SDS011;60146;52.498;13.462;2023-08-17T13:40:18;3.15;;;2.65;;
72235;SDS011;60146;52.498;13.462;2023-08-17T13:42:44;4.30;;;2.78;;
72235;SDS011;60146;52.498;13.462;2023-08-17T13:45:09;5.13;;;3.40;;
72235;SDS011;60146;52.498;13.462;2023-08-17T13:47:34;3.90;;;3.28;;
72235;SDS011;60146;52.498;13.462;2023-08-17T13:50:00;3.28;;;2.97;;
72235;SDS011;60146;52.498;13.462;2023-08-17T13:52:25;11.82;;;3.63;;
72235;SDS011;60146;52.498;13.462;2023-08-17T13:54:51;4.63;;;3.30;;
72235;SDS011;60146;52.498;13.462;2023-08-17T13:57:16;4.05;;;2.97;;
72235;SDS011;60146;52.498;13.462;2023-08-17T13:59:41;7.65;;;3.40;;
72235;SDS011;60146;52.498;13.462;2023-08-17T14:02:07;7.93;;;3.20;;
72235;SDS011;60146;52.498;13.462;2023-08-17T14:04:33;4.43;;;3.03;;
72235;SDS011;60146;52.498;13.462;2023-08-17T14:06:58;5.47;;;2.88;;
72235;SDS011;60146;52.498;13.462;2023-08-17T14:09:24;3.47;;;3.03;;
72235;SDS011;60146;52.498;13.462;2023-08-17T14:11:49;3.95;;;2.95;;
72235;SDS011;60146;52.498;13.462;2023-08-17T14:14:14;5.95;;;3.38;;
72235;SDS011;60146;52.498;13.462;2023-08-17T14:16:41;5.68;;;3.38;;
72235;SDS011;60146;52.498;13.462;2023-08-17T14:19:07;3.75;;;2.90;;
72235;SDS011;60146;52.498;13.462;2023-08-17T14:21:32;4.20;;;3.08;;
72235;SDS011;60146;52.498;13.462;2023-08-17T14:23:58;5.47;;;2.78;;
72235;SDS011;60146;52.498;13.462;2023-08-17T14:26:23;5.45;;;3.33;;
72235;SDS011;60146;52.498;13.462;2023-08-17T14:28:48;4.32;;;2.92;;
72235;SDS011;60146;52.498;13.462;2023-08-17T14:31:14;4.80;;;3.03;;
72235;SDS011;60146;52.498;13.462;2023-08-17T14:33:42;4.88;;;2.85;;
72235;SDS011;60146;52.498;13.462;2023-08-17T14:36:09;8.13;;;3.00;;
72235;SDS011;60146;52.498;13.462;2023-08-17T14:38:34;5.03;;;2.90;;
72235;SDS011;60146;52.498;13.462;2023-08-17T14:41:00;3.10;;;2.80;;
72235;SDS011;60146;52.498;13.462;2023-08-17T14:43:28;3.97;;;2.85;;
72235;SDS011;60146;52.498;13.462;2023-08-17T14:45:53;4.90;;;3.10;;
72235;SDS011;60146;52.498;13.462;2023-08-17T14:48:19;4.85;;;3.15;;
72235;SDS011;60146;52.498;13.462;2023-08-17T14:50:44;4.95;;;2.90;;
72235;SDS011;60146;52.498;13.462;2023-08-17T14:53:10;7.85;;;3.20;;
72235;SDS011;60146;52.498;13.462;2023-08-17T14:55:51;3.85;;;2.95;;
72235;SDS011;60146;52.498;13.462;2023-08-17T14:58:22;7.60;;;2.97;;